createdAt,value
2022-10-24T00:01:47.966Z,98912.63
2022-10-24T00:04:16.067Z,98910.22
2022-10-24T00:06:44.348Z,98904.34
2022-10-24T00:09:12.535Z,98899.03
2022-10-24T00:11:43.803Z,98910.66
2022-10-24T00:14:12.142Z,98904.81
2022-10-24T00:16:40.265Z,98910.66
2022-10-24T00:19:09.893Z,98907.47
2022-10-24T00:21:38.107Z,98907.91
2022-10-24T00:24:07.586Z,98907.91
2022-10-24T00:26:36.413Z,98902.63
2022-10-24T00:29:05.186Z,98906.31
2022-10-24T00:31:33.633Z,98902.63
2022-10-24T00:34:02.264Z,98902.63
2022-10-24T00:36:32.011Z,98910.00
2022-10-24T00:39:00.601Z,98913.09
2022-10-24T00:41:31.337Z,98917.34
2022-10-24T00:44:21.576Z,98911.47
2022-10-24T00:46:54.309Z,98916.53
2022-10-24T00:49:27.092Z,98914.94
2022-10-24T00:52:02.905Z,98915.72
2022-10-24T00:54:31.737Z,98913.78
2022-10-24T00:57:06.309Z,98913.78
2022-10-24T00:59:36.424Z,98914.81
2022-10-24T01:02:05.222Z,98921.94
2022-10-24T01:04:33.301Z,98921.31
2022-10-24T01:07:19.682Z,98915.47
2022-10-24T01:10:20.597Z,98912.03
2022-10-24T01:12:57.350Z,98904.88
2022-10-24T01:15:35.001Z,98907.75
2022-10-24T01:18:08.018Z,98910.63
2022-10-24T01:21:06.852Z,98910.38
2022-10-24T01:24:07.377Z,98917.53
2022-10-24T01:27:23.466Z,98907.63
2022-10-24T01:30:02.756Z,98915.00
2022-10-24T01:32:49.732Z,98915.22
2022-10-24T01:35:26.943Z,98919.94
2022-10-24T01:38:04.049Z,98920.16
2022-10-24T01:40:36.438Z,98922.22
2022-10-24T01:43:09.700Z,98925.09
2022-10-24T01:45:43.275Z,98924.28
2022-10-24T01:48:15.952Z,98919.81
2022-10-24T01:50:47.210Z,98925.91
2022-10-24T01:53:18.139Z,98926.13
2022-10-24T01:55:49.897Z,98917.59
2022-10-24T01:58:18.178Z,98924.53
2022-10-24T02:00:49.706Z,98924.75
2022-10-24T02:03:21.231Z,98922.34
2022-10-24T02:05:52.817Z,98919.69
2022-10-24T02:08:25.466Z,98921.53
2022-10-24T02:10:58.026Z,98918.88
2022-10-24T02:13:30.543Z,98926.00
2022-10-24T02:16:02.913Z,98912.56
2022-10-24T02:18:32.086Z,98923.38
2022-10-24T02:21:08.368Z,98927.63
2022-10-24T02:23:43.539Z,98916.69
2022-10-24T02:26:19.795Z,98918.53
2022-10-24T02:28:52.547Z,98921.97
2022-10-24T02:31:27.022Z,98923.81
2022-10-24T02:33:56.970Z,98924.28
2022-10-24T02:36:30.515Z,98928.53
2022-10-24T02:39:00.192Z,98923.81
2022-10-24T02:41:34.008Z,98924.84
2022-10-24T02:44:03.871Z,98925.66
2022-10-24T02:46:34.871Z,98930.13
2022-10-24T02:49:04.698Z,98933.81
2022-10-24T02:51:35.534Z,98935.44
2022-10-24T02:54:04.201Z,98940.94
2022-10-24T02:56:32.949Z,98929.34
2022-10-24T02:59:01.192Z,98933.03
2022-10-24T03:01:29.556Z,98932.78
2022-10-24T03:03:59.268Z,98929.34
2022-10-24T03:06:27.770Z,98942.31
2022-10-24T03:08:55.857Z,98937.84
2022-10-24T03:11:24.342Z,98952.09
2022-10-24T03:13:52.972Z,98939.09
2022-10-24T03:16:21.144Z,98948.88
2022-10-24T03:18:49.264Z,98947.03
2022-10-24T03:21:18.840Z,98944.41
2022-10-24T03:23:46.959Z,98948.06
2022-10-24T03:26:15.130Z,98942.78
2022-10-24T03:28:43.240Z,98947.25
2022-10-24T03:31:11.454Z,98946.44
2022-10-24T03:33:39.636Z,98949.09
2022-10-24T03:36:08.107Z,98957.25
2022-10-24T03:38:37.696Z,98947.25
2022-10-24T03:41:06.408Z,98947.25
2022-10-24T03:43:34.588Z,98944.41
2022-10-24T03:46:02.722Z,98941.63
2022-10-24T03:48:30.797Z,98950.22
2022-10-24T03:50:58.974Z,98957.56
2022-10-24T03:53:27.289Z,98949.88
2022-10-24T03:55:57.505Z,98950.91
2022-10-24T03:58:26.069Z,98958.84
2022-10-24T04:00:56.990Z,98947.66
2022-10-24T04:03:25.624Z,98953.31
2022-10-24T04:05:54.064Z,98953.31
2022-10-24T04:08:22.693Z,98953.31
2022-10-24T04:10:50.932Z,98957.56
2022-10-24T04:13:20.380Z,98961.81
2022-10-24T04:15:48.519Z,98966.53
2022-10-24T04:18:16.588Z,98973.41
2022-10-24T04:20:44.711Z,98972.47
2022-10-24T04:23:12.780Z,98983.63
2022-10-24T04:25:41.526Z,98978.34
2022-10-24T04:28:09.696Z,98978.34
2022-10-24T04:30:39.319Z,98982.81
2022-10-24T04:33:07.792Z,98973.88
2022-10-24T04:35:35.905Z,98979.97
2022-10-24T04:38:04.105Z,98983.19
2022-10-24T04:40:32.220Z,98987.44
2022-10-24T04:43:00.331Z,98984.78
2022-10-24T04:45:28.616Z,98990.06
2022-10-24T04:47:58.155Z,98989.28
2022-10-24T04:50:26.228Z,98985.03
2022-10-24T04:52:54.262Z,98989.50
2022-10-24T04:55:22.424Z,98995.84
2022-10-24T04:57:50.699Z,98988.72
2022-10-24T05:00:18.948Z,98991.91
2022-10-24T05:02:47.066Z,98993.75
2022-10-24T05:05:17.254Z,98985.59
2022-10-24T05:07:45.753Z,98998.81
2022-10-24T05:10:15.048Z,98993.53
2022-10-24T05:12:44.622Z,99002.06
2022-10-24T05:15:14.445Z,99003.91
2022-10-24T05:17:42.857Z,99010.56
2022-10-24T05:20:11.875Z,99009.06
2022-10-24T05:22:41.469Z,99007.03
2022-10-24T05:25:10.393Z,99009.44
2022-10-24T05:27:38.797Z,99001.06
2022-10-24T05:30:08.021Z,99005.75
2022-10-24T05:32:39.725Z,98998.31
2022-10-24T05:35:09.519Z,99011.50
2022-10-24T05:37:39.150Z,99011.72
2022-10-24T05:40:10.838Z,99003.22
2022-10-24T05:42:39.062Z,99004.25
2022-10-24T05:45:08.553Z,99008.38
2022-10-24T05:47:36.666Z,99005.38
2022-10-24T05:50:05.977Z,99012.69
2022-10-24T05:52:36.544Z,99013.72
2022-10-24T05:55:07.983Z,99014.78
2022-10-24T05:57:38.926Z,99007.88
2022-10-24T06:00:09.049Z,99014.19
2022-10-24T06:02:37.339Z,99023.72
2022-10-24T06:05:06.149Z,99014.19
2022-10-24T06:07:35.336Z,99016.84
2022-10-24T06:10:04.269Z,99017.84
2022-10-24T06:12:33.174Z,99026.81
2022-10-24T06:15:03.579Z,99022.78
2022-10-24T06:17:32.024Z,99026.25
2022-10-24T06:20:00.101Z,99025.63
2022-10-24T06:22:29.936Z,99030.34
2022-10-24T06:24:58.474Z,99031.38
2022-10-24T06:27:26.598Z,99040.78
2022-10-24T06:29:54.876Z,99042.03
2022-10-24T06:32:24.573Z,99047.75
2022-10-24T06:34:52.613Z,99048.56
2022-10-24T06:37:21.140Z,99054.00
2022-10-24T06:39:49.192Z,99050.88
2022-10-24T06:42:17.381Z,99040.91
2022-10-24T06:44:45.451Z,99041.50
2022-10-24T06:47:13.591Z,99040.50
2022-10-24T06:49:43.418Z,99041.50
2022-10-24T06:52:11.576Z,99038.84
2022-10-24T06:54:41.288Z,99047.59
2022-10-24T06:57:09.564Z,99051.63
2022-10-24T06:59:37.778Z,99042.66
2022-10-24T07:02:06.281Z,99050.97
2022-10-24T07:04:34.695Z,99050.72
2022-10-24T07:07:04.198Z,99046.25
2022-10-24T07:09:32.276Z,99048.56
2022-10-24T07:12:00.565Z,99054.84
2022-10-24T07:14:28.748Z,99053.25
2022-10-24T07:16:56.816Z,99060.97
2022-10-24T07:19:24.952Z,99057.84
2022-10-24T07:21:53.027Z,99053.97
2022-10-24T07:24:22.819Z,99064.09
2022-10-24T07:26:51.413Z,99067.31
2022-10-24T07:29:19.841Z,99062.63
2022-10-24T07:31:49.388Z,99070.47
2022-10-24T07:34:17.590Z,99068.41
2022-10-24T07:36:45.859Z,99075.09
2022-10-24T07:39:14.811Z,99075.44
2022-10-24T07:41:44.552Z,99082.94
2022-10-24T07:44:12.615Z,99083.28
2022-10-24T07:46:42.785Z,99081.00
2022-10-24T07:49:11.152Z,99085.63
2022-10-24T07:51:39.464Z,99076.19
2022-10-24T07:54:07.623Z,99080.81
2022-10-24T07:56:36.055Z,99083.41
2022-10-24T07:59:09.339Z,99086.19
2022-10-24T08:01:41.916Z,99086.75
2022-10-24T08:04:11.085Z,99090.56
2022-10-24T08:06:40.826Z,99092.97
2022-10-24T08:09:08.896Z,99099.66
2022-10-24T08:11:37.090Z,99103.72
2022-10-24T08:14:06.718Z,99103.47
2022-10-24T08:16:34.945Z,99112.22
2022-10-24T08:19:03.057Z,99108.75
2022-10-24T08:21:31.852Z,99110.00
2022-10-24T08:23:59.991Z,99114.50
2022-10-24T08:26:28.145Z,99119.59
2022-10-24T08:28:57.761Z,99122.00
2022-10-24T08:31:27.627Z,99129.34
2022-10-24T08:33:56.880Z,99134.88
2022-10-24T08:36:27.295Z,99144.28
2022-10-24T08:38:55.551Z,99146.72
2022-10-24T08:41:30.398Z,99147.72
2022-10-24T08:44:01.234Z,99153.63
2022-10-24T08:46:50.432Z,99160.75
2022-10-24T08:49:36.004Z,99156.94
2022-10-24T08:52:13.312Z,99163.03
2022-10-24T08:54:43.784Z,99164.19
2022-10-24T08:57:21.124Z,99169.03
2022-10-24T08:59:49.942Z,99170.88
2022-10-24T09:02:24.226Z,99176.03
2022-10-24T09:04:56.513Z,99180.50
2022-10-24T09:10:06.490Z,99185.56
2022-10-24T09:12:36.299Z,99189.63
2022-10-24T09:15:15.096Z,99191.81
2022-10-24T09:17:45.608Z,99188.38
2022-10-24T09:20:25.746Z,99198.50
2022-10-24T09:22:55.694Z,99200.94
2022-10-24T09:25:29.682Z,99201.28
2022-10-24T09:27:59.857Z,99194.75
2022-10-24T09:30:32.989Z,99206.69
2022-10-24T09:33:12.875Z,99198.88
2022-10-24T09:35:41.580Z,99206.75
2022-10-24T09:38:33.714Z,99200.34
2022-10-24T09:41:05.341Z,99198.16
2022-10-24T09:43:35.280Z,99208.75
2022-10-24T09:46:06.776Z,99205.91
2022-10-24T09:48:39.962Z,99208.09
2022-10-24T09:51:09.548Z,99212.25
2022-10-24T09:53:41.040Z,99212.16
2022-10-24T09:56:10.719Z,99212.03
2022-10-24T09:58:39.208Z,99217.81
2022-10-24T10:01:08.968Z,99221.38
2022-10-24T10:03:38.678Z,99222.19
2022-10-24T10:06:17.549Z,99224.28
2022-10-24T10:08:51.498Z,99227.03
2022-10-24T10:11:26.955Z,99227.63
2022-10-24T10:13:55.809Z,99230.06
2022-10-24T10:16:27.118Z,99227.78
2022-10-24T10:19:04.337Z,99230.75
2022-10-24T10:21:55.806Z,99235.59
2022-10-24T10:24:29.685Z,99238.63
2022-10-24T10:26:57.902Z,99243.53
2022-10-24T10:29:26.017Z,99241.94
2022-10-24T10:32:01.702Z,99238.22
2022-10-24T10:34:39.371Z,99232.88
2022-10-24T10:37:30.470Z,99245.56
2022-10-24T10:40:17.664Z,99250.97
2022-10-24T10:42:54.887Z,99252.34
2022-10-24T10:45:36.083Z,99256.38
2022-10-24T10:48:21.521Z,99265.47
2022-10-24T10:51:01.295Z,99291.66
2022-10-24T10:53:40.563Z,99284.84
2022-10-24T10:56:20.777Z,99283.91
2022-10-24T10:59:01.126Z,99297.97
2022-10-24T11:01:38.789Z,99300.03
2022-10-24T11:04:15.574Z,99306.69
2022-10-24T11:06:51.129Z,99310.09
2022-10-24T11:09:31.038Z,99323.66
2022-10-24T11:12:06.620Z,99329.75
2022-10-24T11:14:38.080Z,99334.09
2022-10-24T11:17:10.974Z,99331.72
2022-10-24T11:19:54.883Z,99345.09
2022-10-24T11:22:28.385Z,99350.75
2022-10-24T11:25:01.577Z,99359.88
2022-10-24T11:27:36.465Z,99353.31
2022-10-24T11:30:10.029Z,99366.94
2022-10-24T11:32:43.831Z,99369.03
2022-10-24T11:35:23.646Z,99370.97
2022-10-24T11:38:00.592Z,99371.03
2022-10-24T11:40:30.884Z,99374.34
2022-10-24T11:43:05.466Z,99383.50
2022-10-24T11:45:43.275Z,99390.94
2022-10-24T11:48:15.657Z,99386.09
2022-10-24T11:50:48.585Z,99397.66
2022-10-24T11:53:27.739Z,99402.50
2022-10-24T11:56:01.043Z,99412.50
2022-10-24T11:58:33.565Z,99417.09
2022-10-24T12:01:27.278Z,99421.81
2022-10-24T12:04:20.133Z,99427.09
2022-10-24T12:07:05.726Z,99449.34
2022-10-24T12:10:00.495Z,99457.25
2022-10-24T12:12:49.873Z,99470.72
2022-10-24T12:15:32.947Z,99477.47
2022-10-24T12:18:09.596Z,99482.72
2022-10-24T12:20:39.683Z,99483.31
2022-10-24T12:23:08.580Z,99481.78
2022-10-24T12:25:39.148Z,99480.53
2022-10-24T12:28:09.705Z,99491.84
2022-10-24T12:30:38.646Z,99493.59
2022-10-24T12:33:13.606Z,99488.94
2022-10-24T12:35:59.788Z,99487.22
2022-10-24T12:39:07.929Z,99492.38
2022-10-24T12:41:45.050Z,99482.22
2022-10-24T12:44:42.439Z,99491.94
2022-10-24T12:47:41.619Z,99489.84
2022-10-24T12:50:46.725Z,99483.38
2022-10-24T12:53:20.308Z,99485.47
2022-10-24T12:56:11.011Z,99488.03
2022-10-24T12:58:42.780Z,99485.50
2022-10-24T13:01:24.384Z,99478.44
2022-10-24T13:04:41.493Z,99479.84
2022-10-24T13:07:30.510Z,99482.72
2022-10-24T13:10:13.889Z,99469.56
2022-10-24T13:12:56.214Z,99467.72
2022-10-24T13:15:33.446Z,99467.00
2022-10-24T13:18:21.461Z,99463.88
2022-10-24T13:20:51.291Z,99460.66
2022-10-24T13:23:25.135Z,99464.75
2022-10-24T13:25:56.634Z,99454.44
2022-10-24T13:28:36.133Z,99463.66
2022-10-24T13:31:43.014Z,99462.69
2022-10-24T13:34:34.185Z,99467.63
2022-10-24T13:37:08.230Z,99465.78
2022-10-24T13:39:42.430Z,99468.91
2022-10-24T13:42:24.535Z,99477.38
2022-10-24T13:44:57.271Z,99482.91
2022-10-24T13:47:32.761Z,99483.16
2022-10-24T13:50:05.235Z,99487.56
2022-10-24T13:52:40.479Z,99485.72
2022-10-24T13:55:23.029Z,99484.38
2022-10-24T13:57:54.637Z,99489.94
2022-10-24T14:00:26.088Z,99496.97
2022-10-24T14:02:56.234Z,99497.25
2022-10-24T14:05:33.357Z,99503.03
2022-10-24T14:08:02.515Z,99498.84
2022-10-24T14:10:32.164Z,99497.72
2022-10-24T14:13:01.482Z,99494.50
2022-10-24T14:15:33.134Z,99491.03
2022-10-24T14:18:07.262Z,99490.13
2022-10-24T14:20:37.380Z,99491.84
2022-10-24T14:23:24.481Z,99497.88
2022-10-24T14:25:57.680Z,99488.50
2022-10-24T14:28:30.272Z,99486.09
2022-10-24T14:31:00.604Z,99493.66
2022-10-24T14:33:31.421Z,99489.63
2022-10-24T14:36:02.879Z,99499.19
2022-10-24T14:38:30.922Z,99496.06
2022-10-24T14:41:09.039Z,99491.34
2022-10-24T14:43:42.197Z,99484.84
2022-10-24T14:46:33.497Z,99472.53
2022-10-24T14:49:22.071Z,99464.22
2022-10-24T14:54:23.921Z,99449.91
2022-10-24T14:56:54.536Z,99447.47
2022-10-24T14:59:27.404Z,99448.63
2022-10-24T15:01:57.453Z,99452.19
2022-10-24T15:04:45.938Z,99455.19
2022-10-24T15:07:20.984Z,99456.06
2022-10-24T15:09:54.256Z,99451.09
2022-10-24T15:12:27.649Z,99453.97
2022-10-24T15:14:57.248Z,99464.59
2022-10-24T15:17:32.710Z,99463.22
2022-10-24T15:20:05.579Z,99463.66
2022-10-24T15:22:36.582Z,99468.59
2022-10-24T15:25:10.260Z,99466.41
2022-10-24T15:27:41.554Z,99471.09
2022-10-24T15:30:15.745Z,99472.16
2022-10-24T15:32:43.995Z,99469.94
2022-10-24T15:35:14.263Z,99478.56
2022-10-24T15:37:53.495Z,99482.50
2022-10-24T15:40:24.687Z,99478.66
2022-10-24T15:42:53.251Z,99490.50
2022-10-24T15:45:22.216Z,99484.63
2022-10-24T15:47:52.165Z,99487.53
2022-10-24T15:52:57.916Z,99500.00
2022-10-24T15:55:28.812Z,99500.81
2022-10-24T15:57:59.859Z,99500.00
2022-10-24T16:00:27.957Z,99507.97
2022-10-24T16:03:00.869Z,99512.69
2022-10-24T16:05:36.095Z,99513.13
2022-10-24T16:08:04.448Z,99513.53
2022-10-24T16:10:32.903Z,99512.53
2022-10-24T16:13:01.077Z,99524.16
2022-10-24T16:18:01.278Z,99527.69
2022-10-24T16:20:30.925Z,99528.50
2022-10-24T16:22:59.045Z,99531.00
2022-10-24T16:25:30.152Z,99528.72
2022-10-24T16:27:58.702Z,99539.59
2022-10-24T16:30:30.036Z,99554.94
2022-10-24T16:32:58.586Z,99546.00
2022-10-24T16:35:29.148Z,99552.31
2022-10-24T16:38:00.468Z,99556.00
2022-10-24T16:40:29.771Z,99561.97
2022-10-24T16:43:02.086Z,99569.75
2022-10-24T16:45:30.420Z,99583.72
2022-10-24T16:47:58.463Z,99579.78
2022-10-24T16:50:29.082Z,99579.59
2022-10-24T16:53:03.088Z,99589.59
2022-10-24T16:55:32.527Z,99581.50
2022-10-24T16:58:00.979Z,99595.78
2022-10-24T17:00:30.419Z,99601.25
2022-10-24T17:02:59.253Z,99602.75
2022-10-24T17:05:29.251Z,99601.34
2022-10-24T17:07:58.828Z,99602.56
2022-10-24T17:10:27.099Z,99602.19
2022-10-24T17:12:56.089Z,99611.59
2022-10-24T17:15:24.596Z,99616.28
2022-10-24T17:17:52.868Z,99621.00
2022-10-24T17:20:21.214Z,99617.94
2022-10-24T17:22:49.820Z,99635.91
2022-10-24T17:25:22.619Z,99629.78
2022-10-24T17:27:51.401Z,99633.06
2022-10-24T17:30:22.045Z,99640.22
2022-10-24T17:32:50.730Z,99643.28
2022-10-24T17:35:21.684Z,99643.06
2022-10-24T17:38:02.712Z,99642.66
2022-10-24T17:40:41.527Z,99640.47
2022-10-24T17:43:20.679Z,99640.47
2022-10-24T17:45:49.646Z,99644.31
2022-10-24T17:48:18.049Z,99646.97
2022-10-24T17:50:46.692Z,99649.84
2022-10-24T17:53:15.452Z,99644.78
2022-10-24T17:55:47.147Z,99644.97
2022-10-24T17:58:16.609Z,99644.38
2022-10-24T18:00:45.834Z,99645.41
2022-10-24T18:03:15.046Z,99654.34
2022-10-24T18:05:43.382Z,99647.66
2022-10-24T18:08:14.538Z,99649.50
2022-10-24T18:10:44.439Z,99665.38
2022-10-24T18:13:12.580Z,99657.44
2022-10-24T18:15:40.782Z,99662.91
2022-10-24T18:18:09.720Z,99663.75
2022-10-24T18:20:38.141Z,99666.59
2022-10-24T18:23:06.312Z,99668.63
2022-10-24T18:25:34.629Z,99672.31
2022-10-24T18:28:04.292Z,99668.84
2022-10-24T18:30:32.636Z,99664.53
2022-10-24T18:33:00.786Z,99669.84
2022-10-24T18:35:33.141Z,99671.88
2022-10-24T18:38:02.187Z,99669.25
2022-10-24T18:40:33.441Z,99671.66
2022-10-24T18:43:05.586Z,99666.59
2022-10-24T18:45:34.812Z,99674.94
2022-10-24T18:48:03.625Z,99672.28
2022-10-24T18:50:32.197Z,99679.19
2022-10-24T18:53:06.061Z,99677.81
2022-10-24T18:55:35.940Z,99673.53
2022-10-24T18:58:05.860Z,99674.75
2022-10-24T19:00:38.227Z,99674.53
2022-10-24T19:03:18.145Z,99679.03
2022-10-24T19:05:51.996Z,99678.03
2022-10-24T19:08:25.386Z,99684.13
2022-10-24T19:10:56.541Z,99680.66
2022-10-24T19:13:28.180Z,99678.84
2022-10-24T19:16:00.378Z,99678.03
2022-10-24T19:18:31.212Z,99677.19
2022-10-24T19:20:59.891Z,99680.66
2022-10-24T19:23:28.520Z,99682.47
2022-10-24T19:25:57.149Z,99684.53
2022-10-24T19:28:27.547Z,99681.06
2022-10-24T19:30:56.180Z,99691.66
2022-10-24T19:33:28.108Z,99690.03
2022-10-24T19:35:56.438Z,99697.16
2022-10-24T19:38:25.581Z,99690.22
2022-10-24T19:40:55.426Z,99691.03
2022-10-24T19:43:25.898Z,99692.88
2022-10-24T19:46:20.836Z,99689.41
2022-10-24T19:48:44.712Z,99691.03
2022-10-24T19:51:14.616Z,99695.75
2022-10-24T19:53:44.164Z,99694.13
2022-10-24T19:56:14.058Z,99699.59
2022-10-24T19:58:43.414Z,99697.16
2022-10-24T20:01:15.973Z,99706.13
2022-10-24T20:03:46.178Z,99700.03
2022-10-24T20:06:15.755Z,99710.41
2022-10-24T20:08:44.346Z,99709.38
2022-10-24T20:11:12.713Z,99705.09
2022-10-24T20:13:41.437Z,99709.59
2022-10-24T20:16:10.596Z,99712.22
2022-10-24T20:18:43.721Z,99709.81
2022-10-24T20:21:15.083Z,99723.03
2022-10-24T20:23:43.689Z,99718.31
2022-10-24T20:26:14.142Z,99717.31
2022-10-24T20:28:44.301Z,99723.41
2022-10-24T20:31:21.100Z,99719.13
2022-10-24T20:33:51.122Z,99726.66
2022-10-24T20:36:21.098Z,99720.13
2022-10-24T20:38:49.536Z,99721.34
2022-10-24T20:41:17.792Z,99721.97
2022-10-24T20:43:46.060Z,99721.16
2022-10-24T20:46:14.573Z,99720.94
2022-10-24T20:48:42.771Z,99725.81
2022-10-24T20:51:14.721Z,99730.91
2022-10-24T20:53:43.690Z,99731.72
2022-10-24T20:56:13.951Z,99733.56
2022-10-24T20:58:44.109Z,99734.38
2022-10-24T21:01:14.368Z,99741.69
2022-10-24T21:03:43.474Z,99746.97
2022-10-24T21:06:19.180Z,99746.16
2022-10-24T21:08:49.832Z,99750.88
2022-10-24T21:11:20.133Z,99753.69
2022-10-24T21:13:48.612Z,99758.19
2022-10-24T21:16:16.919Z,99756.56
2022-10-24T21:18:45.049Z,99763.47
2022-10-24T21:21:16.607Z,99762.06
2022-10-24T21:23:44.865Z,99769.19
2022-10-24T21:26:15.099Z,99768.34
2022-10-24T21:28:43.315Z,99779.78
2022-10-24T21:31:14.475Z,99790.75
2022-10-24T21:33:43.224Z,99783.63
2022-10-24T21:36:14.104Z,99793.78
2022-10-24T21:38:46.970Z,99796.44
2022-10-24T21:41:15.749Z,99797.47
2022-10-24T21:43:44.553Z,99800.31
2022-10-24T21:46:15.240Z,99800.31
2022-10-24T21:48:44.715Z,99807.63
2022-10-24T21:51:14.746Z,99804.19
2022-10-24T21:53:46.085Z,99800.13
2022-10-24T21:56:16.997Z,99802.97
2022-10-24T21:58:48.295Z,99810.91
2022-10-24T22:01:18.703Z,99805.00
2022-10-24T22:03:47.199Z,99819.25
2022-10-24T22:06:17.081Z,99822.09
2022-10-24T22:08:48.349Z,99823.09
2022-10-24T22:11:18.394Z,99823.09
2022-10-24T22:13:46.994Z,99827.00
2022-10-24T22:16:18.755Z,99833.91
2022-10-24T22:18:47.655Z,99832.28
2022-10-24T22:21:24.546Z,99837.13
2022-10-24T22:23:55.818Z,99829.41
2022-10-24T22:26:24.439Z,99833.69
2022-10-24T22:28:52.947Z,99836.53
2022-10-24T22:31:21.595Z,99836.72
2022-10-24T22:33:50.724Z,99841.41
2022-10-24T22:36:25.030Z,99857.66
2022-10-24T22:38:56.494Z,99854.22
2022-10-24T22:41:25.168Z,99857.88
2022-10-24T22:43:53.809Z,99862.34
2022-10-24T22:46:35.320Z,99861.34
2022-10-24T22:51:43.454Z,99864.59
2022-10-24T22:54:18.164Z,99883.09
2022-10-24T22:56:47.066Z,99882.50
2022-10-24T22:59:15.841Z,99879.22
2022-10-24T23:01:56.928Z,99887.16
2022-10-24T23:04:34.554Z,99890.00
2022-10-24T23:07:12.684Z,99898.94
2022-10-24T23:09:42.371Z,99900.97
2022-10-24T23:12:14.960Z,99900.16
2022-10-24T23:14:44.204Z,99897.72
2022-10-24T23:17:15.293Z,99896.09
2022-10-24T23:19:47.000Z,99904.22
2022-10-24T23:22:23.201Z,99898.09
2022-10-24T23:24:54.568Z,99908.69
2022-10-24T23:27:31.489Z,99916.00
2022-10-24T23:30:00.243Z,99915.19
2022-10-24T23:32:30.321Z,99911.53
2022-10-24T23:35:01.206Z,99914.19
2022-10-24T23:37:34.874Z,99913.16
2022-10-24T23:40:19.545Z,99913.56
2022-10-24T23:42:48.957Z,99915.19
2022-10-24T23:45:18.945Z,99918.03
2022-10-24T23:47:59.456Z,99914.56
2022-10-24T23:50:34.703Z,99918.44
2022-10-24T23:53:15.525Z,99927.78
2022-10-24T23:55:46.279Z,99929.81
2022-10-24T23:58:14.437Z,99931.81
